Time;durP1;ratioP1;P1;durP2;ratioP2;P2;SDS_P1;SDS_P2;PMS_P1;PMS_P2;Temp;Humidity;BMP_temperature;BMP_pressure;BME280_temperature;BME280_humidity;BME280_pressure;Samples;Min_cycle;Max_cycle;Signal;HPM_P1;HPM_P2
2023/04/19 00:00:09;;;;;;;;;;;8.40;99.90;;;;;;5071838;28;20373;-69
2023/04/19 00:02:34;;;;;;;;;;;8.40;99.90;;;;;;5071617;28;19932;-69
2023/04/19 00:05:00;;;;;;;;;;;8.40;99.90;;;;;;5071383;28;19981;-68
2023/04/19 00:07:26;;;;;;;;;;;8.30;99.90;;;;;;5070309;28;19990;-68
2023/04/19 00:09:52;;;;;;;;;;;8.30;99.90;;;;;;5070665;28;19925;-68
2023/04/19 00:12:17;;;;;;;;;;;8.30;99.90;;;;;;5053422;28;19931;-68
2023/04/19 00:14:43;;;;;;;;;;;8.30;99.90;;;;;;5071476;28;19924;-69
2023/04/19 00:17:10;;;;;;;;;;;8.30;99.90;;;;;;5070397;28;19939;-70
2023/04/19 00:19:36;;;;;;;;;;;8.30;99.90;;;;;;5071312;28;19932;-69
2023/04/19 00:22:02;;;;;;;;;;;8.30;99.90;;;;;;5071517;28;20282;-69
2023/04/19 00:24:27;;;;;;;;;;;8.20;99.90;;;;;;5069950;28;19931;-69
2023/04/19 00:26:53;;;;;;;;;;;8.20;99.90;;;;;;5103834;28;19924;-67
2023/04/19 00:29:18;;;;;;;;;;;8.20;99.90;;;;;;5069918;28;19925;-70
2023/04/19 00:31:44;;;;;;;;;;;8.30;99.90;;;;;;5053781;28;19928;-68
2023/04/19 00:34:09;;;;;;;;;;;8.20;99.90;;;;;;5070194;28;19928;-67
2023/04/19 00:36:36;;;;;;;;;;;8.20;99.90;;;;;;5070975;28;20011;-68
2023/04/19 00:39:02;;;;;;;;;;;8.20;99.90;;;;;;5053857;28;19935;-69
2023/04/19 00:41:27;;;;;;;;;;;8.20;99.90;;;;;;5069978;28;19925;-69
2023/04/19 00:43:53;;;;;;;;;;;8.10;99.90;;;;;;5071342;28;19924;-68
2023/04/19 00:46:19;;;;;;;;;;;8.10;99.90;;;;;;5069545;28;19925;-72
2023/04/19 00:48:44;;;;;;;;;;;8.10;99.90;;;;;;5072901;28;20015;-67
2023/04/19 00:51:10;;;;;;;;;;;8.10;99.90;;;;;;5073596;28;20436;-69
2023/04/19 00:53:37;;;;;;;;;;;8.10;99.90;;;;;;5073143;28;19976;-68
2023/04/19 00:56:03;;;;;;;;;;;8.10;99.90;;;;;;5075052;28;19924;-69
2023/04/19 00:58:30;;;;;;;;;;;8.00;99.90;;;;;;5074086;28;19924;-68
2023/04/19 01:00:56;;;;;;;;;;;8.00;99.90;;;;;;5074561;28;19978;-68
2023/04/19 01:03:21;;;;;;;;;;;7.90;99.90;;;;;;5073145;28;19925;-70
2023/04/19 01:05:47;;;;;;;;;;;7.90;99.90;;;;;;5073864;28;19947;-69
2023/04/19 01:08:13;;;;;;;;;;;7.90;99.90;;;;;;5074437;28;19984;-68
2023/04/19 01:10:39;;;;;;;;;;;7.80;99.90;;;;;;5073161;28;20564;-69
2023/04/19 01:13:04;;;;;;;;;;;7.80;99.90;;;;;;5073180;28;19931;-68
2023/04/19 01:15:30;;;;;;;;;;;7.70;99.90;;;;;;5073199;28;20026;-68
2023/04/19 01:17:56;;;;;;;;;;;7.60;99.90;;;;;;5056370;28;19928;-69
2023/04/19 01:20:22;;;;;;;;;;;7.60;99.90;;;;;;5073785;28;19931;-74
2023/04/19 01:22:47;;;;;;;;;;;7.60;99.90;;;;;;5073331;28;19931;-68
2023/04/19 01:25:13;;;;;;;;;;;7.50;99.90;;;;;;5055756;28;19925;-68
2023/04/19 01:27:39;;;;;;;;;;;7.50;99.90;;;;;;5072908;28;19968;-68
2023/04/19 01:30:05;;;;;;;;;;;7.40;99.90;;;;;;5073128;28;19924;-70
2023/04/19 01:32:30;;;;;;;;;;;7.40;99.90;;;;;;5073777;28;19924;-68
2023/04/19 01:34:56;;;;;;;;;;;7.40;99.90;;;;;;5074017;28;19929;-69
2023/04/19 01:37:22;;;;;;;;;;;7.40;99.90;;;;;;5072914;28;19931;-68
2023/04/19 01:39:48;;;;;;;;;;;7.30;99.90;;;;;;5072441;28;19924;-69
2023/04/19 01:42:13;;;;;;;;;;;7.30;99.90;;;;;;5073857;28;19924;-69
2023/04/19 01:44:39;;;;;;;;;;;7.30;99.90;;;;;;5072523;28;19924;-68
2023/04/19 01:47:04;;;;;;;;;;;7.30;99.90;;;;;;5073684;28;20381;-68
2023/04/19 01:49:30;;;;;;;;;;;7.30;99.90;;;;;;5073732;28;19971;-69
2023/04/19 01:51:56;;;;;;;;;;;7.20;99.90;;;;;;5073704;28;19929;-68
2023/04/19 01:54:21;;;;;;;;;;;7.20;99.90;;;;;;5106572;28;20267;-69
2023/04/19 01:56:47;;;;;;;;;;;7.10;99.90;;;;;;5055456;28;19920;-70
2023/04/19 01:59:12;;;;;;;;;;;7.10;99.90;;;;;;5055820;28;19932;-69
2023/04/19 02:01:38;;;;;;;;;;;7.10;99.90;;;;;;5073027;28;20267;-69
2023/04/19 02:04:03;;;;;;;;;;;7.10;99.90;;;;;;5073512;28;19980;-69
2023/04/19 02:06:30;;;;;;;;;;;7.10;99.90;;;;;;5071649;28;19947;-74
2023/04/19 02:08:56;;;;;;;;;;;7.00;99.90;;;;;;5055716;28;19924;-69
2023/04/19 02:11:21;;;;;;;;;;;7.00;99.90;;;;;;5072021;28;19932;-68
2023/04/19 02:13:47;;;;;;;;;;;7.00;99.90;;;;;;5072816;28;19925;-68
2023/04/19 02:16:12;;;;;;;;;;;7.00;99.90;;;;;;5072306;28;19928;-69
2023/04/19 02:18:39;;;;;;;;;;;6.90;99.90;;;;;;5054559;28;20004;-68
2023/04/19 02:21:05;;;;;;;;;;;6.90;99.90;;;;;;5073163;28;19932;-70
2023/04/19 02:23:31;;;;;;;;;;;6.90;99.90;;;;;;5072306;28;19925;-73
2023/04/19 02:25:56;;;;;;;;;;;6.90;99.90;;;;;;5054510;28;19928;-67
2023/04/19 02:28:22;;;;;;;;;;;6.90;99.90;;;;;;5071672;28;20025;-68
2023/04/19 02:30:48;;;;;;;;;;;6.90;99.90;;;;;;5071426;28;19930;-68
2023/04/19 02:33:13;;;;;;;;;;;6.80;99.90;;;;;;5054804;28;19930;-69
2023/04/19 02:35:39;;;;;;;;;;;6.90;99.90;;;;;;5072173;28;19970;-69
2023/04/19 02:38:05;;;;;;;;;;;6.90;99.90;;;;;;5072742;28;19962;-68
2023/04/19 02:40:30;;;;;;;;;;;7.00;99.90;;;;;;5071756;28;19975;-69
2023/04/19 02:42:56;;;;;;;;;;;7.00;99.90;;;;;;5071182;28;20281;-69
2023/04/19 02:45:21;;;;;;;;;;;7.00;99.90;;;;;;5054711;28;19947;-69
2023/04/19 02:47:47;;;;;;;;;;;7.00;99.90;;;;;;5072180;28;19970;-69
2023/04/19 02:50:14;;;;;;;;;;;7.00;99.90;;;;;;5071305;28;19983;-69
2023/04/19 02:52:39;;;;;;;;;;;7.00;99.90;;;;;;5072182;28;19932;-68
2023/04/19 02:55:05;;;;;;;;;;;7.00;99.90;;;;;;5070971;28;19925;-68
2023/04/19 02:57:31;;;;;;;;;;;6.90;99.90;;;;;;5071063;28;19930;-69
2023/04/19 02:59:57;;;;;;;;;;;6.90;99.90;;;;;;5071944;28;19929;-68
2023/04/19 03:02:23;;;;;;;;;;;6.90;99.90;;;;;;5071444;28;19924;-68
2023/04/19 03:04:49;;;;;;;;;;;6.80;99.90;;;;;;5070776;28;19924;-68
2023/04/19 03:07:15;;;;;;;;;;;6.80;99.90;;;;;;5071268;28;19925;-69
2023/04/19 03:09:40;;;;;;;;;;;6.70;99.90;;;;;;5071921;28;19970;-68
2023/04/19 03:12:06;;;;;;;;;;;6.70;99.90;;;;;;5071763;28;20456;-68
2023/04/19 03:14:35;;;;;;;;;;;6.60;99.90;;;;;;5070889;28;19928;-69
2023/04/19 03:17:00;;;;;;;;;;;6.60;99.90;;;;;;5071777;28;20011;-69
2023/04/19 03:19:26;;;;;;;;;;;6.60;99.90;;;;;;5072122;28;19982;-70
2023/04/19 03:21:52;;;;;;;;;;;6.50;99.90;;;;;;5070858;28;19925;-69
2023/04/19 03:24:18;;;;;;;;;;;6.50;99.90;;;;;;5071378;28;19932;-68
2023/04/19 03:26:44;;;;;;;;;;;6.50;99.90;;;;;;5052953;28;19931;-67
2023/04/19 03:29:09;;;;;;;;;;;6.50;99.90;;;;;;5071595;28;20011;-68
2023/04/19 03:31:35;;;;;;;;;;;6.40;99.90;;;;;;5071988;28;19932;-70
2023/04/19 03:34:01;;;;;;;;;;;6.40;99.90;;;;;;5071657;28;19935;-68
2023/04/19 03:36:26;;;;;;;;;;;6.30;99.90;;;;;;5070336;28;20511;-68
2023/04/19 03:38:52;;;;;;;;;;;6.30;99.90;;;;;;5053799;28;20388;-68
2023/04/19 03:41:22;;;;;;;;;;;6.30;99.90;;;;;;5072200;28;19970;-68
2023/04/19 03:43:47;;;;;;;;;;;6.20;99.90;;;;;;5053880;28;19924;-68
2023/04/19 03:46:13;;;;;;;;;;;6.20;99.90;;;;;;5071746;28;19925;-68
2023/04/19 03:48:39;;;;;;;;;;;6.20;99.90;;;;;;5071773;28;19932;-68
2023/04/19 03:51:04;;;;;;;;;;;6.20;99.90;;;;;;5071414;28;19924;-69
2023/04/19 03:53:30;;;;;;;;;;;6.00;99.90;;;;;;5071932;28;19931;-69
2023/04/19 03:55:55;;;;;;;;;;;6.00;99.90;;;;;;5070150;28;19932;-69
2023/04/19 03:58:21;;;;;;;;;;;5.90;99.90;;;;;;5070693;28;19924;-69
2023/04/19 04:00:47;;;;;;;;;;;5.90;99.90;;;;;;5070178;28;19930;-68
2023/04/19 04:03:13;;;;;;;;;;;5.80;99.90;;;;;;5071826;28;20477;-67
2023/04/19 04:05:38;;;;;;;;;;;5.70;99.90;;;;;;5071612;28;19931;-69
2023/04/19 04:08:04;;;;;;;;;;;5.70;99.90;;;;;;5053530;28;19920;-69
2023/04/19 04:10:30;;;;;;;;;;;5.60;99.90;;;;;;5071578;28;19925;-68
2023/04/19 04:12:55;;;;;;;;;;;5.50;99.90;;;;;;5071247;28;19924;-67
2023/04/19 04:15:21;;;;;;;;;;;5.40;99.90;;;;;;5071891;28;19925;-68
2023/04/19 04:17:46;;;;;;;;;;;5.40;99.90;;;;;;5036365;28;19976;-68
2023/04/19 04:20:12;;;;;;;;;;;5.30;99.90;;;;;;5053398;28;19977;-67
2023/04/19 04:22:41;;;;;;;;;;;5.30;99.90;;;;;;5070327;28;19931;-68
2023/04/19 04:25:07;;;;;;;;;;;5.20;99.90;;;;;;5074716;28;19924;-68
2023/04/19 04:27:33;;;;;;;;;;;5.20;99.90;;;;;;5075040;28;19931;-70
2023/04/19 04:30:00;;;;;;;;;;;5.10;99.90;;;;;;5074622;28;20250;-68
2023/04/19 04:32:25;;;;;;;;;;;5.10;99.90;;;;;;5074001;28;19929;-69
2023/04/19 04:34:51;;;;;;;;;;;5.10;99.90;;;;;;5073554;28;20235;-67
2023/04/19 04:37:17;;;;;;;;;;;5.10;99.90;;;;;;5108132;28;19971;-69
2023/04/19 04:39:42;;;;;;;;;;;5.10;99.90;;;;;;5073889;28;19924;-69
2023/04/19 04:42:08;;;;;;;;;;;5.10;99.90;;;;;;5056998;28;20318;-68
2023/04/19 04:44:35;;;;;;;;;;;5.20;99.90;;;;;;5073970;28;19947;-69
2023/04/19 04:47:00;;;;;;;;;;;5.10;99.90;;;;;;5073264;28;19924;-68
2023/04/19 04:49:26;;;;;;;;;;;5.10;99.90;;;;;;5074683;28;19981;-68
2023/04/19 04:51:51;;;;;;;;;;;5.30;99.90;;;;;;5074252;28;19924;-69
2023/04/19 04:54:17;;;;;;;;;;;5.20;99.90;;;;;;5074634;28;20388;-68
2023/04/19 04:56:42;;;;;;;;;;;5.10;99.90;;;;;;5073489;28;20003;-69
2023/04/19 04:59:08;;;;;;;;;;;5.20;99.90;;;;;;5056099;28;20238;-69
2023/04/19 05:01:34;;;;;;;;;;;5.20;99.90;;;;;;5073460;28;19925;-69
2023/04/19 05:03:59;;;;;;;;;;;5.20;99.90;;;;;;5074152;28;20227;-70
2023/04/19 05:06:26;;;;;;;;;;;5.30;99.90;;;;;;5073305;28;20085;-67
2023/04/19 05:08:51;;;;;;;;;;;5.30;99.90;;;;;;5074088;28;19979;-74
2023/04/19 05:11:17;;;;;;;;;;;5.40;99.90;;;;;;5073915;28;20362;-69
2023/04/19 05:13:43;;;;;;;;;;;5.50;99.90;;;;;;5074127;28;20020;-68
2023/04/19 05:16:08;;;;;;;;;;;5.50;99.90;;;;;;5072670;28;20365;-69
2023/04/19 05:18:34;;;;;;;;;;;5.60;99.90;;;;;;5056309;28;19982;-68
2023/04/19 05:21:00;;;;;;;;;;;5.70;99.90;;;;;;5073453;28;19932;-68
2023/04/19 05:23:25;;;;;;;;;;;5.80;99.90;;;;;;5056530;28;19931;-68
2023/04/19 05:25:51;;;;;;;;;;;5.90;99.90;;;;;;5106383;28;19925;-69
2023/04/19 05:28:17;;;;;;;;;;;6.10;99.90;;;;;;5107253;28;19931;-69
2023/04/19 05:30:43;;;;;;;;;;;6.50;99.90;;;;;;5107043;28;20351;-71
2023/04/19 05:33:09;;;;;;;;;;;7.30;99.90;;;;;;5072803;28;20353;-71
2023/04/19 05:35:35;;;;;;;;;;;8.20;99.90;;;;;;5055788;28;19931;-68
2023/04/19 05:38:01;;;;;;;;;;;9.00;99.90;;;;;;5072986;28;19928;-67
2023/04/19 05:40:28;;;;;;;;;;;9.80;99.90;;;;;;5074341;28;20016;-69
2023/04/19 05:42:53;;;;;;;;;;;10.50;99.90;;;;;;5072812;28;19977;-68
2023/04/19 05:45:20;;;;;;;;;;;11.00;99.90;;;;;;5073593;28;20011;-68
2023/04/19 05:47:46;;;;;;;;;;;11.60;99.90;;;;;;5073700;28;19943;-68
2023/04/19 05:50:13;;;;;;;;;;;12.20;99.90;;;;;;5072898;28;19969;-67
2023/04/19 05:52:39;;;;;;;;;;;12.80;99.90;;;;;;5073724;28;19982;-67
2023/04/19 05:55:06;;;;;;;;;;;13.10;99.90;;;;;;5073150;28;20353;-67
2023/04/19 05:57:31;;;;;;;;;;;13.40;99.90;;;;;;5072588;28;20389;-67
2023/04/19 05:59:57;;;;;;;;;;;13.80;99.90;;;;;;5071909;28;19925;-68
2023/04/19 06:02:23;;;;;;;;;;;14.30;99.90;;;;;;5073308;28;19925;-67
2023/04/19 06:04:48;;;;;;;;;;;;;;;;;;5073381;28;20401;-68
2023/04/19 06:07:14;;;;;;;;;;;14.90;99.90;;;;;;5071752;28;19924;-68
2023/04/19 06:09:40;;;;;;;;;;;15.40;99.90;;;;;;5073368;28;19924;-69
2023/04/19 06:12:05;;;;;;;;;;;15.50;99.50;;;;;;5071897;28;19993;-67
2023/04/19 06:14:31;;;;;;;;;;;15.70;97.90;;;;;;5073153;28;20215;-68
2023/04/19 06:16:57;;;;;;;;;;;15.60;98.10;;;;;;5073016;28;19924;-68
2023/04/19 06:19:22;;;;;;;;;;;15.90;97.40;;;;;;5071542;28;19932;-69
2023/04/19 06:21:48;;;;;;;;;;;16.10;97.90;;;;;;5072044;28;20280;-68
2023/04/19 06:24:13;;;;;;;;;;;16.10;96.90;;;;;;5071530;28;19978;-69
2023/04/19 06:26:39;;;;;;;;;;;16.10;96.60;;;;;;5072821;28;20007;-68
2023/04/19 06:29:05;;;;;;;;;;;16.10;97.20;;;;;;5072470;28;20365;-67
2023/04/19 06:31:31;;;;;;;;;;;16.40;96.30;;;;;;5071869;28;20015;-69
2023/04/19 06:33:56;;;;;;;;;;;16.50;95.70;;;;;;5055047;28;19928;-69
2023/04/19 06:36:22;;;;;;;;;;;16.50;95.00;;;;;;5072216;28;19927;-69
2023/04/19 06:38:48;;;;;;;;;;;16.60;95.40;;;;;;5072317;28;20005;-68
2023/04/19 06:41:14;;;;;;;;;;;16.50;94.10;;;;;;5072223;28;19925;-68
2023/04/19 06:43:41;;;;;;;;;;;16.50;94.70;;;;;;5072548;28;19930;-68
2023/04/19 06:46:07;;;;;;;;;;;16.70;94.50;;;;;;5071060;28;19947;-67
2023/04/19 06:48:33;;;;;;;;;;;16.70;94.30;;;;;;5072110;28;20020;-68
2023/04/19 06:50:59;;;;;;;;;;;16.80;93.60;;;;;;5072149;28;20065;-68
2023/04/19 06:53:26;;;;;;;;;;;16.80;93.10;;;;;;5071947;28;19928;-67
2023/04/19 06:55:59;;;;;;;;;;;16.80;91.80;;;;;;5072115;28;19924;-69
2023/04/19 06:58:25;;;;;;;;;;;16.90;92.60;;;;;;5070640;28;20576;-70
2023/04/19 07:00:51;;;;;;;;;;;17.10;92.20;;;;;;5071994;28;19928;-67
2023/04/19 07:03:17;;;;;;;;;;;17.00;90.10;;;;;;5071768;28;19930;-69
2023/04/19 07:05:42;;;;;;;;;;;17.20;91.30;;;;;;5072085;28;20515;-67
2023/04/19 07:08:08;;;;;;;;;;;17.30;91.30;;;;;;5071518;28;19994;-67
2023/04/19 07:10:33;;;;;;;;;;;17.20;91.10;;;;;;5072101;28;19924;-68
2023/04/19 07:12:59;;;;;;;;;;;17.40;91.50;;;;;;5070938;28;19924;-67
2023/04/19 07:15:24;;;;;;;;;;;17.50;90.50;;;;;;5071782;28;19924;-68
2023/04/19 07:17:50;;;;;;;;;;;17.70;90.90;;;;;;5071463;28;20374;-67
2023/04/19 07:20:15;;;;;;;;;;;17.70;90.40;;;;;;5071454;28;19928;-67
2023/04/19 07:22:41;;;;;;;;;;;17.60;90.80;;;;;;5071881;28;20283;-68
2023/04/19 07:25:07;;;;;;;;;;;17.70;90.10;;;;;;5070492;28;19931;-67
2023/04/19 07:27:32;;;;;;;;;;;17.80;88.40;;;;;;5103867;28;19924;-68
2023/04/19 07:29:58;;;;;;;;;;;17.90;90.60;;;;;;5070317;28;20370;-67
2023/04/19 07:32:24;;;;;;;;;;;18.00;86.70;;;;;;5071237;28;19978;-68
2023/04/19 07:34:50;;;;;;;;;;;18.00;90.00;;;;;;5071608;28;20000;-68
2023/04/19 07:37:16;;;;;;;;;;;18.10;89.50;;;;;;5070283;28;19934;-68
2023/04/19 07:39:41;;;;;;;;;;;18.40;88.90;;;;;;5037282;28;19928;-67
2023/04/19 07:42:07;;;;;;;;;;;18.40;84.90;;;;;;5053733;28;19924;-67
2023/04/19 07:44:33;;;;;;;;;;;18.60;87.90;;;;;;5069969;28;19924;-67
2023/04/19 07:46:58;;;;;;;;;;;18.80;84.00;;;;;;5037112;28;20397;-67
2023/04/19 07:49:24;;;;;;;;;;;18.80;85.80;;;;;;5071528;28;19924;-67
2023/04/19 07:51:50;;;;;;;;;;;19.00;85.00;;;;;;5070735;28;20434;-67
2023/04/19 07:54:16;;;;;;;;;;;19.10;86.40;;;;;;5071116;28;19931;-67
2023/04/19 07:56:42;;;;;;;;;;;19.20;82.80;;;;;;5071503;28;20301;-66
2023/04/19 07:59:07;;;;;;;;;;;19.30;84.40;;;;;;5108385;28;19935;-67
2023/04/19 08:01:33;;;;;;;;;;;19.50;85.20;;;;;;5075206;28;20560;-67
2023/04/19 08:03:59;;;;;;;;;;;19.80;83.70;;;;;;5075619;28;19924;-67
2023/04/19 08:06:25;;;;;;;;;;;20.00;84.70;;;;;;5073751;28;19924;-68
2023/04/19 08:08:51;;;;;;;;;;;20.40;83.60;;;;;;5074340;28;19925;-66
2023/04/19 08:11:17;;;;;;;;;;;20.70;79.90;;;;;;5074937;28;19924;-65
2023/04/19 08:13:43;;;;;;;;;;;21.10;80.20;;;;;;5074554;28;19928;-66
2023/04/19 08:16:08;;;;;;;;;;;20.90;79.80;;;;;;5075536;28;19925;-67
2023/04/19 08:18:34;;;;;;;;;;;20.70;77.80;;;;;;5075038;28;20116;-67
2023/04/19 08:21:00;;;;;;;;;;;20.60;79.00;;;;;;5074202;28;19973;-67
2023/04/19 08:23:26;;;;;;;;;;;20.50;79.40;;;;;;5075143;28;19940;-66
2023/04/19 08:25:51;;;;;;;;;;;20.70;78.60;;;;;;5073759;28;19932;-69
2023/04/19 08:28:17;;;;;;;;;;;20.60;79.30;;;;;;5075107;28;19924;-67
2023/04/19 08:30:43;;;;;;;;;;;20.50;78.90;;;;;;5074698;28;20381;-66
2023/04/19 08:33:09;;;;;;;;;;;20.50;78.90;;;;;;5075223;28;19925;-66
2023/04/19 08:35:36;;;;;;;;;;;20.70;77.30;;;;;;5074983;28;19925;-65
2023/04/19 08:38:03;;;;;;;;;;;20.70;77.50;;;;;;5074207;28;19983;-66
2023/04/19 08:40:29;;;;;;;;;;;20.60;77.70;;;;;;5074503;28;20389;-69
2023/04/19 08:42:55;;;;;;;;;;;20.40;77.60;;;;;;5073927;28;19975;-64
2023/04/19 08:45:23;;;;;;;;;;;20.10;76.10;;;;;;5074840;28;19982;-67
2023/04/19 08:47:49;;;;;;;;;;;19.90;75.40;;;;;;5074107;28;20010;-66
2023/04/19 08:50:15;;;;;;;;;;;19.90;76.10;;;;;;5074886;28;20373;-66
2023/04/19 08:52:41;;;;;;;;;;;19.50;76.60;;;;;;5074760;28;19924;-66
2023/04/19 08:55:07;;;;;;;;;;;19.60;77.10;;;;;;5074868;28;19931;-66
2023/04/19 08:57:33;;;;;;;;;;;19.60;77.00;;;;;;5074544;28;19924;-66
2023/04/19 08:59:59;;;;;;;;;;;19.50;76.90;;;;;;5074797;28;20019;-66
2023/04/19 09:02:25;;;;;;;;;;;19.60;77.20;;;;;;5074372;28;19925;-66
2023/04/19 09:04:50;;;;;;;;;;;19.90;76.90;;;;;;5074600;28;20024;-67
2023/04/19 09:07:26;;;;;;;;;;;19.90;76.00;;;;;;5074619;28;19990;-66
2023/04/19 09:10:05;;;;;;;;;;;19.90;76.90;;;;;;5073461;28;20027;-66
2023/04/19 09:12:31;;;;;;;;;;;19.80;76.50;;;;;;5074229;28;19927;-67
2023/04/19 09:14:56;;;;;;;;;;;20.00;77.50;;;;;;5074350;28;19928;-67
2023/04/19 09:17:22;;;;;;;;;;;20.20;75.90;;;;;;5074507;28;20262;-66
2023/04/19 09:19:48;;;;;;;;;;;20.10;75.80;;;;;;5074458;28;19925;-66
2023/04/19 09:22:14;;;;;;;;;;;20.00;75.50;;;;;;5073285;28;19956;-67
2023/04/19 09:24:40;;;;;;;;;;;20.00;74.70;;;;;;5074034;28;19967;-67
2023/04/19 09:27:05;;;;;;;;;;;20.00;76.00;;;;;;5074351;28;20023;-65
2023/04/19 09:29:31;;;;;;;;;;;20.00;75.00;;;;;;5073945;28;20308;-66
2023/04/19 09:31:57;;;;;;;;;;;20.00;74.60;;;;;;5074255;28;20357;-66
2023/04/19 09:34:23;;;;;;;;;;;19.50;72.80;;;;;;5073873;28;19931;-66
2023/04/19 09:36:49;;;;;;;;;;;18.50;74.10;;;;;;5072867;28;19924;-67
2023/04/19 09:39:37;;;;;;;;;;;17.70;75.10;;;;;;5073020;28;19948;-69
2023/04/19 09:42:03;;;;;;;;;;;17.10;75.20;;;;;;5074022;28;19931;-68
2023/04/19 09:44:28;;;;;;;;;;;16.90;76.20;;;;;;5073425;28;19924;-68
2023/04/19 09:46:54;;;;;;;;;;;16.60;76.00;;;;;;5072646;28;20050;-68
2023/04/19 09:49:22;;;;;;;;;;;16.40;75.80;;;;;;5073133;28;20389;-69
2023/04/19 09:51:52;;;;;;;;;;;16.30;75.40;;;;;;5073679;28;19931;-68
2023/04/19 09:54:19;;;;;;;;;;;16.00;75.10;;;;;;5074043;28;19978;-70
2023/04/19 09:56:44;;;;;;;;;;;15.80;75.20;;;;;;5072567;28;19998;-68
2023/04/19 09:59:10;;;;;;;;;;;15.70;76.20;;;;;;5074045;28;20024;-69
2023/04/19 10:01:45;;;;;;;;;;;15.60;76.30;;;;;;5072664;28;20389;-70
2023/04/19 10:04:12;;;;;;;;;;;15.60;76.70;;;;;;5073783;28;19931;-69
2023/04/19 10:06:38;;;;;;;;;;;15.60;77.40;;;;;;5073275;28;20022;-69
2023/04/19 10:09:04;;;;;;;;;;;15.70;77.50;;;;;;5056101;28;20285;-69
2023/04/19 10:11:40;;;;;;;;;;;15.80;77.60;;;;;;5072397;28;19948;-69
2023/04/19 10:14:06;;;;;;;;;;;15.80;76.30;;;;;;5073181;28;19972;-70
2023/04/19 10:16:32;;;;;;;;;;;15.70;76.50;;;;;;5072957;28;20013;-68
2023/04/19 10:18:58;;;;;;;;;;;15.50;77.30;;;;;;5072355;28;19924;-69
2023/04/19 10:21:26;;;;;;;;;;;15.40;77.70;;;;;;5073448;28;19931;-69
2023/04/19 10:23:52;;;;;;;;;;;15.30;78.80;;;;;;5055116;28;20541;-69
2023/04/19 10:26:17;;;;;;;;;;;15.30;79.00;;;;;;5072944;28;19986;-68
2023/04/19 10:28:43;;;;;;;;;;;15.30;79.60;;;;;;5072544;28;20278;-68
2023/04/19 10:31:11;;;;;;;;;;;15.40;79.00;;;;;;5072968;28;19924;-70
2023/04/19 10:33:37;;;;;;;;;;;15.30;78.20;;;;;;5105569;28;19978;-69
2023/04/19 10:36:03;;;;;;;;;;;15.20;78.80;;;;;;5072904;28;19920;-69
2023/04/19 10:38:35;;;;;;;;;;;15.30;79.30;;;;;;5073089;28;19920;-69
2023/04/19 10:41:02;;;;;;;;;;;15.20;78.80;;;;;;5073083;28;20369;-69
2023/04/19 10:43:33;;;;;;;;;;;15.10;79.10;;;;;;5072042;28;19925;-70
2023/04/19 10:46:06;;;;;;;;;;;15.00;78.90;;;;;;5071092;28;20081;-70
2023/04/19 10:48:32;;;;;;;;;;;14.90;79.80;;;;;;5071693;28;20015;-70
2023/04/19 10:51:02;;;;;;;;;;;14.90;80.00;;;;;;5054408;28;19920;-70
2023/04/19 10:53:47;;;;;;;;;;;14.80;80.10;;;;;;5071631;28;19929;-69
2023/04/19 10:56:14;;;;;;;;;;;14.80;80.10;;;;;;5073056;28;20380;-70
2023/04/19 10:58:58;;;;;;;;;;;14.80;79.60;;;;;;5071357;28;19924;-70
2023/04/19 11:01:36;;;;;;;;;;;14.80;79.90;;;;;;5071354;28;19931;-69
2023/04/19 11:04:01;;;;;;;;;;;14.80;79.40;;;;;;5071143;28;19982;-69
2023/04/19 11:06:27;;;;;;;;;;;14.70;79.80;;;;;;5072548;28;19924;-70
2023/04/19 11:08:53;;;;;;;;;;;14.60;79.60;;;;;;5069541;28;19936;-70
2023/04/19 11:11:19;;;;;;;;;;;14.50;79.80;;;;;;5071262;28;19935;-69
2023/04/19 11:13:48;;;;;;;;;;;14.50;80.30;;;;;;5070632;28;20318;-69
2023/04/19 11:16:13;;;;;;;;;;;14.60;80.80;;;;;;5072257;28;20331;-69
2023/04/19 11:18:39;;;;;;;;;;;14.60;80.50;;;;;;5070675;28;20023;-69
2023/04/19 11:21:05;;;;;;;;;;;14.70;80.60;;;;;;5071038;28;19921;-70
2023/04/19 11:23:30;;;;;;;;;;;14.50;80.70;;;;;;5054481;28;19924;-69
2023/04/19 11:25:56;;;;;;;;;;;14.50;81.30;;;;;;5070006;28;19925;-70
2023/04/19 11:28:21;;;;;;;;;;;14.50;81.20;;;;;;5071068;28;20015;-70
2023/04/19 11:30:48;;;;;;;;;;;14.40;81.50;;;;;;5070496;28;19925;-70
2023/04/19 11:33:13;;;;;;;;;;;14.40;81.70;;;;;;5070466;28;19935;-69
2023/04/19 11:35:40;;;;;;;;;;;14.40;82.60;;;;;;5070814;28;19932;-69
2023/04/19 11:38:05;;;;;;;;;;;14.40;82.30;;;;;;5070355;28;19977;-69
2023/04/19 11:40:31;;;;;;;;;;;14.40;82.60;;;;;;5070800;28;19924;-69
2023/04/19 11:43:00;;;;;;;;;;;14.40;83.40;;;;;;5104548;28;19925;-69
2023/04/19 11:45:28;;;;;;;;;;;14.40;83.40;;;;;;5071506;28;19963;-70
2023/04/19 11:47:54;;;;;;;;;;;14.50;84.10;;;;;;5070291;28;20388;-70
2023/04/19 11:50:29;;;;;;;;;;;14.50;84.70;;;;;;5072068;28;19932;-70
2023/04/19 11:52:55;;;;;;;;;;;14.40;83.80;;;;;;5070691;28;19930;-70
2023/04/19 11:55:20;;;;;;;;;;;14.40;83.50;;;;;;5070961;28;20392;-70
2023/04/19 11:57:46;;;;;;;;;;;14.30;83.30;;;;;;5070744;28;19929;-69
2023/04/19 12:00:13;;;;;;;;;;;14.30;83.70;;;;;;5071693;28;19924;-70
2023/04/19 12:02:39;;;;;;;;;;;14.20;84.10;;;;;;5054420;28;19968;-69
2023/04/19 12:05:12;;;;;;;;;;;14.20;84.90;;;;;;5071202;28;19925;-69
2023/04/19 12:07:56;;;;;;;;;;;14.20;85.50;;;;;;5070743;28;19925;-69
2023/04/19 12:10:22;;;;;;;;;;;14.30;85.00;;;;;;5071394;28;19925;-69
2023/04/19 12:12:47;;;;;;;;;;;14.30;85.20;;;;;;5070531;28;19920;-70
2023/04/19 12:15:13;;;;;;;;;;;14.30;86.10;;;;;;5070500;28;19928;-70
2023/04/19 12:17:57;;;;;;;;;;;14.30;85.50;;;;;;5070785;28;19931;-70
2023/04/19 12:20:33;;;;;;;;;;;14.20;85.20;;;;;;5070728;28;19963;-68
2023/04/19 12:22:59;;;;;;;;;;;14.20;85.90;;;;;;5069861;28;19931;-70
2023/04/19 12:25:32;;;;;;;;;;;14.20;86.20;;;;;;5070502;28;19925;-68
2023/04/19 12:27:58;;;;;;;;;;;14.10;85.90;;;;;;5069695;28;19968;-71
2023/04/19 12:30:25;;;;;;;;;;;14.10;85.80;;;;;;5070368;28;20003;-70
2023/04/19 12:32:54;;;;;;;;;;;14.10;85.90;;;;;;5071140;28;19924;-70
2023/04/19 12:35:24;;;;;;;;;;;14.00;86.90;;;;;;5070064;28;19925;-69
2023/04/19 12:37:50;;;;;;;;;;;14.00;89.30;;;;;;5071434;28;19924;-69
2023/04/19 12:40:16;;;;;;;;;;;14.00;90.10;;;;;;5071380;28;19928;-70
2023/04/19 12:42:42;;;;;;;;;;;13.90;89.60;;;;;;5071646;28;19924;-70
2023/04/19 12:45:07;;;;;;;;;;;13.90;90.20;;;;;;5072627;28;20293;-69
2023/04/19 12:47:33;;;;;;;;;;;13.90;90.80;;;;;;5074939;28;20307;-70
2023/04/19 12:49:59;;;;;;;;;;;14.00;91.30;;;;;;5057101;28;20385;-69
2023/04/19 12:52:25;;;;;;;;;;;13.90;91.10;;;;;;5073988;28;19931;-69
2023/04/19 12:54:50;;;;;;;;;;;13.90;91.50;;;;;;5074396;28;19931;-69
2023/04/19 12:57:16;;;;;;;;;;;13.90;91.60;;;;;;5073833;28;19928;-68
2023/04/19 12:59:41;;;;;;;;;;;13.80;91.70;;;;;;5074883;28;20385;-69
2023/04/19 13:02:07;;;;;;;;;;;13.80;92.20;;;;;;5073356;28;20054;-68
2023/04/19 13:04:33;;;;;;;;;;;13.90;92.60;;;;;;5073787;28;20258;-69
2023/04/19 13:06:58;;;;;;;;;;;13.90;92.20;;;;;;5074509;28;19925;-69
2023/04/19 13:09:25;;;;;;;;;;;14.00;92.50;;;;;;5057238;28;19924;-70
2023/04/19 13:11:51;;;;;;;;;;;13.90;91.70;;;;;;5073539;28;20499;-69
2023/04/19 13:14:16;;;;;;;;;;;13.90;92.10;;;;;;5071699;28;19933;-68
2023/04/19 13:16:42;;;;;;;;;;;14.00;92.00;;;;;;5069399;28;19925;-70
2023/04/19 13:19:07;;;;;;;;;;;14.00;92.00;;;;;;5072247;28;19928;-68
2023/04/19 13:21:33;;;;;;;;;;;14.00;92.30;;;;;;5106383;28;19931;-69
2023/04/19 13:23:58;;;;;;;;;;;14.00;92.10;;;;;;5106921;28;19924;-69
2023/04/19 13:26:24;;;;;;;;;;;13.90;92.20;;;;;;5072850;28;19942;-68
2023/04/19 13:28:50;;;;;;;;;;;14.00;92.00;;;;;;5107394;28;19929;-70
2023/04/19 13:31:15;;;;;;;;;;;13.90;91.90;;;;;;5073824;28;19936;-67
2023/04/19 13:33:41;;;;;;;;;;;13.70;92.00;;;;;;5073221;28;20387;-67
2023/04/19 13:36:07;;;;;;;;;;;13.70;92.40;;;;;;5074064;28;20408;-68
2023/04/19 13:38:32;;;;;;;;;;;13.70;91.80;;;;;;5073052;28;19929;-68
2023/04/19 13:40:58;;;;;;;;;;;13.70;92.20;;;;;;5072388;28;19924;-70
2023/04/19 13:43:24;;;;;;;;;;;13.70;92.30;;;;;;5072769;28;20357;-69
2023/04/19 13:45:49;;;;;;;;;;;13.70;92.50;;;;;;5072542;28;19920;-69
2023/04/19 13:48:15;;;;;;;;;;;13.70;92.40;;;;;;5072636;28;19932;-69
2023/04/19 13:50:40;;;;;;;;;;;13.60;92.20;;;;;;5072430;28;19982;-69
2023/04/19 13:53:06;;;;;;;;;;;13.60;92.20;;;;;;5072066;28;19925;-68
2023/04/19 13:55:32;;;;;;;;;;;13.60;92.20;;;;;;5072646;28;19931;-69
2023/04/19 13:57:57;;;;;;;;;;;13.50;92.10;;;;;;5072351;28;19967;-68
2023/04/19 14:00:23;;;;;;;;;;;13.50;92.10;;;;;;5072881;28;19925;-69
2023/04/19 14:02:49;;;;;;;;;;;13.50;92.60;;;;;;5070203;28;19925;-70
2023/04/19 14:05:14;;;;;;;;;;;13.40;92.30;;;;;;5071052;28;20022;-68
2023/04/19 14:07:40;;;;;;;;;;;13.40;92.50;;;;;;5072170;28;19920;-69
2023/04/19 14:10:06;;;;;;;;;;;13.40;92.70;;;;;;5073377;28;19936;-70
2023/04/19 14:12:32;;;;;;;;;;;13.50;93.40;;;;;;5071938;28;19924;-68
2023/04/19 14:14:58;;;;;;;;;;;13.50;92.50;;;;;;5104809;28;19931;-68
2023/04/19 14:17:23;;;;;;;;;;;13.40;92.70;;;;;;5072347;28;19924;-68